Terminal Aerodrome Forecast
Issued by NWS

Home | Current Version | Previous Version | Text Only | Print | Product List | Glossary On
Versions: 1 2 3 4 5 6 7 8 9 10 11 12 13 14 15 16 17 18 19 20 21 22 23 24 25
000
FTUS46 KMFR 202320
TAFOTH
TAF
KOTH 202320Z 2100/2124 35012G20KT P6SM OVC008
     FM210300 36008KT P6SM OVC006
     FM210700 VRB03KT 3SM BR OVC004
     FM211600 VRB03KT P6SM OVC007
     FM211800 35010KT P6SM SCT009 BKN025
     FM212100 35018G30KT P6SM BKN035=

USA.gov is the U.S. government's official web portal to all federal, state and local government web resources and services.